Hauptseite
METAR-TAF:

METAR-TAF

Flughäfen :

Nueva Loja, Ecuador

Breite: 00-05-33N, Länge: 076-52-10W, Höhe: 299 m

Beobachtung

Neuester Wetterbericht von vor 48 Minuten, um 19:00 UTC
Wind 6 kt aus Nord/Nordost
Temperatur 25°C
Luftfeuchtigkeit 83%
Luftdruck 1014 hPa
Sichtweite 10 km oder mehr
Aufgelockert bewölkt in der Höhe von 2000 ft
Durchbrochene Bewölkung in der Höhe von 10000 ft

METAR: SENL 121900Z 02006KT 9999 SCT020 BKN100 25/22 Q1014 RMK A2996

Zeit: 14:48 (19:48 UTC)


TAF: fehlend

Wetterbeobachtungen und Prognosen von mehr als 4000 Flughäfen (METAR und TAF Bericht).

Die verfügbaren Stationen werden durch gelbe und rote Markierungen auf der Karte dargestellt.

Führen Sie die Maus auf sie, um den Namen der Station zu sehen.

Darauf klicken, um die Beobachtung von Wetterbeobachtungen und Prognosen zu sehen.

Um die Karte zu ändern : klicken Sie auf den grünen Tasten mit einem schwarzen Kreuz Zum Vergrößern, auf den grünen Button mit einem Gedankenstrich zu verkleinern, oder auf die grünen Pfeile für benachbarte Karten.


METAR-TAF: